Terminal Aerodrome Forecast
Issued by NWS Raleigh/Durham, NC

Home | Current Version | Previous Version | Text Only | Print | Product List | Glossary On
Versions: 1 2 3 4 5 6 7 8 9 10 11 12 13 14 15 16 17 18 19 20 21 22 23 24 25 26 27 28 29 30 31 32 33 34 35 36 37 38 39 40 41 42 43 44 45 46 47
000
FTUS42 KRAH 240256 AAA
TAFRDU
TAF AMD
KRDU 240256Z 2403/2424 15012G20KT 3SM SHRA OVC007
      TEMPO 2403/2405 18017G28KT 1SM +SHRA OVC014
     FM240500 18012G20KT P6SM OVC014
     FM241700 21020G30KT P6SM BKN020=

USA.gov is the U.S. government's official web portal to all federal, state and local government web resources and services.